createdAt,value
2023-07-27T00:00:50.661Z,38.22
2023-07-27T00:03:18.737Z,38.21
2023-07-27T00:05:47.241Z,38.43
2023-07-27T00:08:16.494Z,38.56
2023-07-27T00:10:45.797Z,38.62
2023-07-27T00:13:13.832Z,38.35
2023-07-27T00:15:41.748Z,38.00
2023-07-27T00:18:09.777Z,38.28
2023-07-27T00:20:37.704Z,38.14
2023-07-27T00:23:05.627Z,38.22
2023-07-27T00:25:33.605Z,38.33
2023-07-27T00:28:03.033Z,38.29
2023-07-27T00:30:31.554Z,38.03
2023-07-27T00:33:00.261Z,38.51
2023-07-27T00:35:28.310Z,38.10
2023-07-27T00:37:56.265Z,38.23
2023-07-27T00:40:24.222Z,37.96
2023-07-27T00:42:52.219Z,38.04
2023-07-27T00:45:21.967Z,38.41
2023-07-27T00:47:50.006Z,38.26
2023-07-27T00:50:43.537Z,38.51
2023-07-27T00:53:11.960Z,37.85
2023-07-27T00:55:39.933Z,38.26
2023-07-27T00:58:07.967Z,38.12
2023-07-27T01:00:37.637Z,38.07
2023-07-27T01:03:06.471Z,38.19
2023-07-27T01:05:35.072Z,38.13
2023-07-27T01:08:03.160Z,38.40
2023-07-27T01:10:47.875Z,38.13
2023-07-27T01:13:25.039Z,38.34
2023-07-27T01:16:00.385Z,38.75
2023-07-27T01:18:35.158Z,38.47
2023-07-27T01:21:16.159Z,38.17
2023-07-27T01:24:19.687Z,37.98
2023-07-27T01:27:20.187Z,38.54
2023-07-27T01:30:10.013Z,38.22
2023-07-27T01:32:41.352Z,38.23
2023-07-27T01:35:12.870Z,37.92
2023-07-27T01:37:43.626Z,37.87
2023-07-27T01:40:14.625Z,38.32
2023-07-27T01:42:44.192Z,37.98
2023-07-27T01:45:14.954Z,38.38
2023-07-27T01:47:47.876Z,38.28
2023-07-27T01:50:16.811Z,38.49
2023-07-27T01:52:46.851Z,38.13
2023-07-27T01:55:16.958Z,38.13
2023-07-27T01:57:46.535Z,38.20
2023-07-27T02:00:15.804Z,38.67
2023-07-27T02:02:48.312Z,38.87
2023-07-27T02:05:17.081Z,38.32
2023-07-27T02:07:45.392Z,38.85
2023-07-27T02:10:17.426Z,39.05
2023-07-27T02:12:51.783Z,38.84
2023-07-27T02:15:25.390Z,38.62
2023-07-27T02:18:01.187Z,39.20
2023-07-27T02:20:35.596Z,38.92
2023-07-27T02:23:05.239Z,39.27
2023-07-27T02:25:35.199Z,39.30
2023-07-27T02:28:03.245Z,39.41
2023-07-27T02:30:31.449Z,39.72
2023-07-27T02:33:00.778Z,39.66
2023-07-27T02:35:28.704Z,39.67
2023-07-27T02:37:57.497Z,39.87
2023-07-27T02:40:27.449Z,39.87
2023-07-27T02:42:56.460Z,39.91
2023-07-27T02:45:25.376Z,39.77
2023-07-27T02:47:53.875Z,40.14
2023-07-27T02:50:24.644Z,40.37
2023-07-27T02:53:02.453Z,40.30
2023-07-27T02:55:30.924Z,40.70
2023-07-27T02:58:01.522Z,41.16
2023-07-27T03:00:33.669Z,41.06
2023-07-27T03:03:02.444Z,41.20
2023-07-27T03:05:31.858Z,41.57
2023-07-27T03:07:59.790Z,41.64
2023-07-27T03:10:36.475Z,42.08
2023-07-27T03:13:05.949Z,41.58
2023-07-27T03:15:33.974Z,42.18
2023-07-27T03:18:01.960Z,42.34
2023-07-27T03:20:31.307Z,42.19
2023-07-27T03:23:00.768Z,42.42
2023-07-27T03:25:33.092Z,42.49
2023-07-27T03:28:01.045Z,42.99
2023-07-27T03:30:28.950Z,42.81
2023-07-27T03:32:56.019Z,42.87
2023-07-27T03:35:24.181Z,43.28
2023-07-27T03:37:53.794Z,43.07
2023-07-27T03:40:22.474Z,43.12
2023-07-27T03:42:50.429Z,43.62
2023-07-27T03:45:18.589Z,43.40
2023-07-27T03:47:47.490Z,43.79
2023-07-27T03:50:15.811Z,43.51
2023-07-27T03:52:45.353Z,44.16
2023-07-27T03:55:19.751Z,43.92
2023-07-27T03:57:49.801Z,44.90
2023-07-27T04:00:17.668Z,43.68
2023-07-27T04:02:48.190Z,44.30
2023-07-27T04:05:16.285Z,44.18
2023-07-27T04:07:44.325Z,44.43
2023-07-27T04:10:12.538Z,44.37
2023-07-27T04:12:41.785Z,44.27
2023-07-27T04:15:11.123Z,45.06
2023-07-27T04:17:39.211Z,44.78
2023-07-27T04:20:09.435Z,44.86
2023-07-27T04:22:37.337Z,45.46
2023-07-27T04:25:05.930Z,45.61
2023-07-27T04:27:33.824Z,45.59
2023-07-27T04:30:03.170Z,45.84
2023-07-27T04:32:31.670Z,45.39
2023-07-27T04:34:59.624Z,46.14
2023-07-27T04:37:27.779Z,45.81
2023-07-27T04:39:55.672Z,46.49
2023-07-27T04:42:23.761Z,46.43
2023-07-27T04:44:51.818Z,46.01
2023-07-27T04:47:21.159Z,46.66
2023-07-27T04:49:49.085Z,46.01
2023-07-27T04:52:17.022Z,46.99
2023-07-27T04:54:44.981Z,46.99
2023-07-27T04:57:38.545Z,48.00
2023-07-27T05:00:08.062Z,46.70
2023-07-27T05:02:37.427Z,47.29
2023-07-27T05:05:05.864Z,47.03
2023-07-27T05:07:33.791Z,47.53
2023-07-27T05:10:01.770Z,47.91
2023-07-27T05:12:29.868Z,47.70
2023-07-27T05:14:57.811Z,47.50
2023-07-27T05:17:25.719Z,48.15
2023-07-27T05:19:56.126Z,48.19
2023-07-27T05:23:25.351Z,49.55
2023-07-27T05:25:53.413Z,48.43
2023-07-27T05:28:21.351Z,48.44
2023-07-27T05:30:50.627Z,48.49
2023-07-27T05:33:18.630Z,48.42
2023-07-27T05:35:50.848Z,49.21
2023-07-27T05:38:19.546Z,49.04
2023-07-27T05:40:47.482Z,49.16
2023-07-27T05:43:15.433Z,49.20
2023-07-27T05:45:43.536Z,48.71
2023-07-27T05:48:11.520Z,49.45
2023-07-27T05:50:39.536Z,49.28
2023-07-27T05:53:08.844Z,49.54
2023-07-27T05:55:36.898Z,49.46
2023-07-27T05:58:18.440Z,49.50
2023-07-27T06:01:17.618Z,49.59
2023-07-27T06:03:54.710Z,49.81
2023-07-27T06:06:33.912Z,49.92
2023-07-27T06:09:04.006Z,50.50
2023-07-27T06:11:32.399Z,50.51
2023-07-27T06:14:00.308Z,50.67
2023-07-27T06:16:28.358Z,50.76
2023-07-27T06:18:56.329Z,50.29
2023-07-27T06:21:24.463Z,50.72
2023-07-27T06:23:52.398Z,50.60
2023-07-27T06:26:22.240Z,51.33
2023-07-27T06:28:50.235Z,50.98
2023-07-27T06:31:18.394Z,50.84
2023-07-27T06:33:48.006Z,50.99
2023-07-27T06:36:16.283Z,51.21
2023-07-27T06:38:44.180Z,51.51
2023-07-27T06:41:12.235Z,51.65
2023-07-27T06:43:41.494Z,51.90
2023-07-27T06:46:09.466Z,51.27
2023-07-27T06:48:37.459Z,51.42
2023-07-27T06:51:05.484Z,51.83
2023-07-27T06:53:33.432Z,51.59
2023-07-27T06:56:01.306Z,51.56
2023-07-27T06:58:29.235Z,51.88
2023-07-27T07:00:58.704Z,51.83
2023-07-27T07:03:27.221Z,52.19
2023-07-27T07:05:55.910Z,52.32
2023-07-27T07:08:24.163Z,52.62
2023-07-27T07:10:52.125Z,52.11
2023-07-27T07:13:20.099Z,52.52
2023-07-27T07:15:48.029Z,52.41
2023-07-27T07:18:17.277Z,52.69
2023-07-27T07:20:47.967Z,52.84
2023-07-27T07:23:16.677Z,52.46
2023-07-27T07:25:44.949Z,52.73
2023-07-27T07:28:14.801Z,52.54
2023-07-27T07:30:43.225Z,53.28
2023-07-27T07:33:11.263Z,53.13
2023-07-27T07:35:40.769Z,53.49
2023-07-27T07:38:11.696Z,53.87
2023-07-27T07:40:39.759Z,53.38
2023-07-27T07:43:08.680Z,53.31
2023-07-27T07:45:36.668Z,53.82
2023-07-27T07:48:05.048Z,53.92
2023-07-27T07:50:34.355Z,54.01
2023-07-27T07:53:04.992Z,53.88
2023-07-27T07:55:36.328Z,54.60
2023-07-27T07:58:04.380Z,53.81
2023-07-27T08:00:32.896Z,54.34
2023-07-27T08:03:01.020Z,54.25
2023-07-27T08:05:29.052Z,53.85
2023-07-27T08:07:57.186Z,54.31
2023-07-27T08:10:28.840Z,55.08
2023-07-27T08:12:56.798Z,54.31
2023-07-27T08:15:27.825Z,55.04
2023-07-27T08:18:23.767Z,55.56
2023-07-27T08:21:02.502Z,55.64
2023-07-27T08:23:30.712Z,54.24
2023-07-27T08:26:01.025Z,54.68
2023-07-27T08:28:29.414Z,54.49
2023-07-27T08:30:57.407Z,54.84
2023-07-27T08:33:25.666Z,54.96
2023-07-27T08:35:53.999Z,54.96
2023-07-27T08:38:22.167Z,54.93
2023-07-27T08:40:56.703Z,56.07
2023-07-27T08:43:26.793Z,54.83
2023-07-27T08:45:55.229Z,54.81
2023-07-27T08:48:26.096Z,55.19
2023-07-27T08:50:54.892Z,55.15
2023-07-27T08:53:22.902Z,54.83
2023-07-27T08:55:50.964Z,54.94
2023-07-27T08:58:20.510Z,55.01
2023-07-27T09:00:51.273Z,55.54
2023-07-27T09:03:19.345Z,55.36
2023-07-27T09:06:04.344Z,56.94
2023-07-27T09:08:32.763Z,55.26
2023-07-27T09:11:08.420Z,56.27
2023-07-27T09:13:36.764Z,55.58
2023-07-27T09:16:08.036Z,55.68
2023-07-27T09:18:37.469Z,55.57
2023-07-27T09:21:10.509Z,56.34
2023-07-27T09:23:39.303Z,55.98
2023-07-27T09:26:08.064Z,55.50
2023-07-27T09:28:36.554Z,55.85
2023-07-27T09:31:06.275Z,56.09
2023-07-27T09:33:34.359Z,55.79
2023-07-27T09:36:04.291Z,55.91
2023-07-27T09:38:33.690Z,56.02
2023-07-27T09:41:08.290Z,57.14
2023-07-27T09:43:39.060Z,56.39
2023-07-27T09:46:08.520Z,55.79
2023-07-27T09:48:37.453Z,56.05
2023-07-27T09:51:09.536Z,56.53
2023-07-27T09:53:38.897Z,55.84
2023-07-27T09:56:07.795Z,56.25
2023-07-27T09:58:37.318Z,56.24
2023-07-27T10:01:05.814Z,56.10
2023-07-27T10:03:36.108Z,56.37
2023-07-27T10:06:05.209Z,56.15
2023-07-27T10:08:34.924Z,55.77
2023-07-27T10:11:03.799Z,55.84
2023-07-27T10:13:40.373Z,56.79
2023-07-27T10:16:11.459Z,56.00
2023-07-27T10:18:46.367Z,56.82
2023-07-27T10:21:28.936Z,57.44
2023-07-27T10:23:59.909Z,55.89
2023-07-27T10:26:48.688Z,57.23
2023-07-27T10:29:17.909Z,55.94
2023-07-27T10:31:46.817Z,56.04
2023-07-27T10:34:26.322Z,56.25
2023-07-27T10:36:58.578Z,56.17
2023-07-27T10:39:29.746Z,56.56
2023-07-27T10:42:07.096Z,57.00
2023-07-27T10:44:42.718Z,57.07
2023-07-27T10:47:11.523Z,56.46
2023-07-27T10:49:42.388Z,56.85
2023-07-27T10:52:11.140Z,56.44
2023-07-27T10:54:40.715Z,56.75
2023-07-27T10:57:10.284Z,56.59
2023-07-27T10:59:40.322Z,56.26
2023-07-27T11:02:17.436Z,56.95
2023-07-27T11:04:47.603Z,56.80
2023-07-27T11:07:16.455Z,56.59
2023-07-27T11:09:48.381Z,56.74
2023-07-27T11:12:16.398Z,56.66
2023-07-27T11:14:44.323Z,56.53
2023-07-27T11:17:13.821Z,57.00
2023-07-27T11:19:41.966Z,56.91
2023-07-27T11:22:14.519Z,57.13
2023-07-27T11:24:43.075Z,56.90
2023-07-27T11:27:12.043Z,57.39
2023-07-27T11:29:40.554Z,57.55
2023-07-27T11:32:09.286Z,57.33
2023-07-27T11:34:37.531Z,57.13
2023-07-27T11:37:05.924Z,57.46
2023-07-27T11:39:36.444Z,57.41
2023-07-27T11:42:10.790Z,57.37
2023-07-27T11:44:39.290Z,56.98
2023-07-27T11:47:08.035Z,57.05
2023-07-27T11:49:35.942Z,56.86
2023-07-27T11:52:08.328Z,57.35
2023-07-27T11:54:41.254Z,57.31
2023-07-27T11:57:09.585Z,56.70
2023-07-27T11:59:37.872Z,56.48
2023-07-27T12:02:06.369Z,57.00
2023-07-27T12:04:34.386Z,56.38
2023-07-27T12:07:02.354Z,56.83
2023-07-27T12:09:30.461Z,56.91
2023-07-27T12:11:59.992Z,56.50
2023-07-27T12:14:27.820Z,56.45
2023-07-27T12:19:26.799Z,56.56
2023-07-27T12:21:55.821Z,56.56
2023-07-27T12:24:26.023Z,57.03
2023-07-27T12:34:28.443Z,56.45
2023-07-27T12:39:27.144Z,56.81
2023-07-27T12:44:27.161Z,56.50
2023-07-27T12:46:54.963Z,56.74
2023-07-27T12:49:23.004Z,56.68
2023-07-27T12:51:50.893Z,56.33
2023-07-27T12:54:18.755Z,56.54
2023-07-27T12:56:46.569Z,56.84
2023-07-27T12:59:14.475Z,56.78
2023-07-27T13:01:43.689Z,56.52
2023-07-27T13:04:11.655Z,56.54
2023-07-27T13:06:39.548Z,57.09
2023-07-27T13:09:08.810Z,56.89
2023-07-27T13:11:37.299Z,57.28
2023-07-27T13:14:06.031Z,56.81
2023-07-27T13:16:35.208Z,56.76
2023-07-27T13:19:06.526Z,57.04
2023-07-27T13:21:34.650Z,57.13
2023-07-27T13:24:03.297Z,57.07
2023-07-27T13:26:45.786Z,57.40
2023-07-27T13:29:16.847Z,57.24
2023-07-27T13:31:44.948Z,56.98
2023-07-27T13:34:14.269Z,56.66
2023-07-27T13:36:42.300Z,56.61
2023-07-27T13:39:10.157Z,56.59
2023-07-27T13:41:38.085Z,56.84
2023-07-27T13:44:05.872Z,56.73
2023-07-27T13:46:34.032Z,56.63
2023-07-27T13:49:01.934Z,56.80
2023-07-27T13:51:31.711Z,57.14
2023-07-27T13:54:00.339Z,57.03
2023-07-27T13:56:28.183Z,57.42
2023-07-27T13:58:56.057Z,57.13
2023-07-27T14:01:24.330Z,57.24
2023-07-27T14:03:52.297Z,57.10
2023-07-27T14:06:20.904Z,57.23
2023-07-27T14:08:50.290Z,56.94
2023-07-27T14:11:18.205Z,57.23
2023-07-27T14:13:46.306Z,57.00
2023-07-27T14:16:14.264Z,57.39
2023-07-27T14:18:43.676Z,56.95
2023-07-27T14:21:11.774Z,57.25
2023-07-27T14:23:39.627Z,57.22
2023-07-27T14:26:09.242Z,57.25
2023-07-27T14:28:40.349Z,56.96
2023-07-27T14:31:13.520Z,56.88
2023-07-27T14:33:43.594Z,57.45
2023-07-27T14:36:11.772Z,57.35
2023-07-27T14:38:39.726Z,57.10
2023-07-27T14:41:12.781Z,56.91
2023-07-27T14:43:43.960Z,56.91
2023-07-27T14:46:12.374Z,56.91
2023-07-27T14:48:40.825Z,56.92
2023-07-27T14:51:08.886Z,56.96
2023-07-27T14:53:36.921Z,57.16
2023-07-27T14:56:05.098Z,56.88
2023-07-27T14:58:37.265Z,56.75
2023-07-27T15:01:14.927Z,57.12
2023-07-27T15:03:52.179Z,56.61
2023-07-27T15:06:20.982Z,56.62
2023-07-27T15:08:48.896Z,56.56
2023-07-27T15:13:49.014Z,56.15
2023-07-27T15:16:16.916Z,56.63
2023-07-27T15:18:44.846Z,56.09
2023-07-27T15:21:12.698Z,56.12
2023-07-27T15:23:40.680Z,56.34
2023-07-27T15:26:09.218Z,56.21
2023-07-27T15:28:37.987Z,56.65
2023-07-27T15:31:09.253Z,56.68
2023-07-27T15:33:37.948Z,56.68
2023-07-27T15:36:06.242Z,56.19
2023-07-27T15:38:34.169Z,56.02
2023-07-27T15:41:03.862Z,56.18
2023-07-27T15:43:31.867Z,56.29
2023-07-27T15:45:59.743Z,56.04
2023-07-27T15:48:29.025Z,55.92
2023-07-27T15:50:57.116Z,56.04
2023-07-27T15:53:25.036Z,55.81
2023-07-27T15:55:52.963Z,56.32
2023-07-27T15:58:22.214Z,55.84
2023-07-27T16:00:56.790Z,56.41
2023-07-27T16:03:25.270Z,56.25
2023-07-27T16:05:54.584Z,56.36
2023-07-27T16:08:23.489Z,56.37
2023-07-27T16:10:51.324Z,56.06
2023-07-27T16:13:19.198Z,56.57
2023-07-27T16:15:47.522Z,56.33
2023-07-27T16:18:15.519Z,56.33
2023-07-27T16:20:44.077Z,56.75
2023-07-27T16:23:14.829Z,56.63
2023-07-27T16:25:44.257Z,56.52
2023-07-27T16:28:12.461Z,56.63
2023-07-27T16:30:42.798Z,56.74
2023-07-27T16:33:11.428Z,56.62
2023-07-27T16:35:39.700Z,56.63
2023-07-27T16:38:07.572Z,56.68
2023-07-27T16:40:36.818Z,56.60
2023-07-27T16:43:04.887Z,56.75
2023-07-27T16:45:32.788Z,56.93
2023-07-27T16:48:00.798Z,57.06
2023-07-27T16:50:28.715Z,57.05
2023-07-27T16:52:56.641Z,56.97
2023-07-27T16:55:27.219Z,56.96
2023-07-27T16:57:56.846Z,56.81
2023-07-27T17:00:25.107Z,57.06
2023-07-27T17:02:53.194Z,57.11
2023-07-27T17:05:21.265Z,57.05
2023-07-27T17:07:49.237Z,56.78
2023-07-27T17:10:17.413Z,57.31
2023-07-27T17:12:45.392Z,57.32
2023-07-27T17:15:14.751Z,57.10
2023-07-27T17:17:42.815Z,57.10
2023-07-27T17:20:12.407Z,57.44
2023-07-27T17:22:40.431Z,56.98
2023-07-27T17:25:08.666Z,57.27
2023-07-27T17:27:36.623Z,57.49
2023-07-27T17:30:05.046Z,57.16
2023-07-27T17:32:34.340Z,57.19
2023-07-27T17:35:02.585Z,57.38
2023-07-27T17:37:30.583Z,57.44
2023-07-27T17:39:58.543Z,56.91
2023-07-27T17:42:26.863Z,56.97
2023-07-27T17:44:54.684Z,57.42
2023-07-27T17:47:22.570Z,57.12
2023-07-27T17:49:51.836Z,57.21
2023-07-27T17:52:19.859Z,57.31
2023-07-27T17:54:47.735Z,57.07
2023-07-27T17:57:15.642Z,57.22
2023-07-27T17:59:43.664Z,57.10
2023-07-27T18:02:11.794Z,57.08
2023-07-27T18:04:39.659Z,56.97
2023-07-27T18:07:08.926Z,56.82
2023-07-27T18:09:37.618Z,56.51
2023-07-27T18:12:06.042Z,56.43
2023-07-27T18:14:34.151Z,56.46
2023-07-27T18:17:02.154Z,56.70
2023-07-27T18:19:30.196Z,56.89
2023-07-27T18:21:58.892Z,56.78
2023-07-27T18:24:29.347Z,56.53
2023-07-27T18:26:57.442Z,56.90
2023-07-27T18:29:25.276Z,56.85
2023-07-27T18:31:53.424Z,56.80
2023-07-27T18:34:21.880Z,57.01
2023-07-27T18:36:50.718Z,56.65
2023-07-27T18:39:18.614Z,56.49
2023-07-27T18:41:48.147Z,56.83
2023-07-27T18:44:16.160Z,56.52
2023-07-27T18:46:44.106Z,56.31
2023-07-27T18:49:11.953Z,56.52
2023-07-27T18:51:39.996Z,56.87
2023-07-27T18:54:07.987Z,56.59
2023-07-27T18:56:36.131Z,56.80
2023-07-27T18:59:05.487Z,56.21
2023-07-27T19:01:34.011Z,56.58
2023-07-27T19:04:02.225Z,56.66
2023-07-27T19:06:30.288Z,56.69
2023-07-27T19:08:58.130Z,56.77
2023-07-27T19:11:26.127Z,56.39
2023-07-27T19:13:53.906Z,56.59
2023-07-27T19:16:27.428Z,56.42
2023-07-27T19:18:55.977Z,56.44
2023-07-27T19:21:23.781Z,56.06
2023-07-27T19:23:51.920Z,56.50
2023-07-27T19:26:21.817Z,56.30
2023-07-27T19:28:50.724Z,56.56
2023-07-27T19:31:22.983Z,56.51
2023-07-27T19:33:52.934Z,56.33
2023-07-27T19:36:21.529Z,56.51
2023-07-27T19:38:49.837Z,56.28
2023-07-27T19:41:18.904Z,56.45
2023-07-27T19:43:47.065Z,56.13
2023-07-27T19:46:14.997Z,56.47
2023-07-27T19:48:42.984Z,56.20
2023-07-27T19:51:12.206Z,55.95
2023-07-27T19:53:41.993Z,55.86
2023-07-27T19:56:12.881Z,56.28
2023-07-27T19:58:41.026Z,56.27
2023-07-27T20:01:09.252Z,56.00
2023-07-27T20:03:38.270Z,56.05
2023-07-27T20:06:06.199Z,55.84
2023-07-27T20:08:46.441Z,55.99
2023-07-27T20:11:16.517Z,55.89
2023-07-27T20:13:46.422Z,55.92
2023-07-27T20:16:14.798Z,55.88
2023-07-27T20:18:44.122Z,56.08
2023-07-27T20:21:12.979Z,55.77
2023-07-27T20:23:42.815Z,55.65
2023-07-27T20:26:10.826Z,56.06
2023-07-27T20:28:38.667Z,55.63
2023-07-27T20:31:07.464Z,55.64
2023-07-27T20:33:35.439Z,55.95
2023-07-27T20:36:03.381Z,55.65
2023-07-27T20:38:31.217Z,56.07
2023-07-27T20:41:05.355Z,55.69
2023-07-27T20:43:33.491Z,55.85
2023-07-27T20:46:01.849Z,55.78
2023-07-27T20:48:30.735Z,55.84
2023-07-27T20:50:59.144Z,55.52
2023-07-27T20:53:27.051Z,55.43
2023-07-27T20:55:56.953Z,55.82
2023-07-27T20:58:26.430Z,55.73
2023-07-27T21:01:00.974Z,55.80
2023-07-27T21:03:28.974Z,55.78
2023-07-27T21:05:56.846Z,55.37
2023-07-27T21:08:24.797Z,55.32
2023-07-27T21:10:53.084Z,55.32
2023-07-27T21:13:21.072Z,55.51
2023-07-27T21:16:00.249Z,55.47
2023-07-27T21:18:28.329Z,55.82
2023-07-27T21:20:56.253Z,55.58
2023-07-27T21:23:24.456Z,55.55
2023-07-27T21:25:58.890Z,55.92
2023-07-27T21:28:27.394Z,55.69
2023-07-27T21:30:57.218Z,55.31
2023-07-27T21:33:29.207Z,55.37
2023-07-27T21:35:57.994Z,55.39
2023-07-27T21:38:25.825Z,55.74
2023-07-27T21:40:54.094Z,55.51
2023-07-27T21:43:22.354Z,55.40
2023-07-27T21:45:54.327Z,55.23
2023-07-27T21:48:23.889Z,55.41
2023-07-27T21:51:17.302Z,55.60
2023-07-27T21:53:45.255Z,55.32
2023-07-27T21:56:40.962Z,55.23
2023-07-27T21:59:09.185Z,55.33
2023-07-27T22:01:37.169Z,55.58
2023-07-27T22:04:06.662Z,55.61
2023-07-27T22:06:34.953Z,55.42
2023-07-27T22:09:04.614Z,55.73
2023-07-27T22:11:33.030Z,55.64
2023-07-27T22:14:01.016Z,55.53
2023-07-27T22:16:29.037Z,55.84
2023-07-27T22:18:57.082Z,55.55
2023-07-27T22:21:26.444Z,55.53
2023-07-27T22:23:54.725Z,55.83
2023-07-27T22:26:50.808Z,55.61
2023-07-27T22:29:39.039Z,55.59
2023-07-27T22:32:51.641Z,55.54
2023-07-27T22:35:50.250Z,55.86
2023-07-27T22:38:46.947Z,55.45
2023-07-27T22:41:37.323Z,55.82
2023-07-27T22:44:08.698Z,55.33
2023-07-27T22:46:39.374Z,55.80
2023-07-27T22:49:16.194Z,55.77
2023-07-27T22:51:44.809Z,55.55
2023-07-27T22:54:27.132Z,55.54
2023-07-27T22:57:13.391Z,55.30
2023-07-27T23:00:00.982Z,56.03
2023-07-27T23:02:32.817Z,55.49
2023-07-27T23:05:02.768Z,55.64
2023-07-27T23:07:41.158Z,55.40
2023-07-27T23:10:11.717Z,55.85
2023-07-27T23:12:41.796Z,55.85
2023-07-27T23:15:21.502Z,55.44
2023-07-27T23:17:57.389Z,55.54
2023-07-27T23:23:41.737Z,55.59
2023-07-27T23:26:57.365Z,55.90
2023-07-27T23:29:38.633Z,55.97
2023-07-27T23:32:16.457Z,55.60
2023-07-27T23:34:52.145Z,55.63
2023-07-27T23:37:28.045Z,55.53
2023-07-27T23:41:31.622Z,55.87
2023-07-27T23:46:58.977Z,55.57
2023-07-27T23:55:38.565Z,55.99
2023-07-27T23:58:14.158Z,55.83
